sensor_id;sensor_type;location;lat;lon;timestamp;P1;durP1;ratioP1;P2;durP2;ratioP2
67749;SDS011;54550;48.838;8.828;2023-04-10T00:00:39;16.17;;;10.00;;
67749;SDS011;54550;48.838;8.828;2023-04-10T00:03:07;18.80;;;11.75;;
67749;SDS011;54550;48.838;8.828;2023-04-10T00:05:32;18.70;;;12.87;;
67749;SDS011;54550;48.838;8.828;2023-04-10T00:07:58;19.23;;;11.70;;
67749;SDS011;54550;48.838;8.828;2023-04-10T00:10:23;22.87;;;12.13;;
67749;SDS011;54550;48.838;8.828;2023-04-10T00:12:50;17.00;;;11.57;;
67749;SDS011;54550;48.838;8.828;2023-04-10T00:15:17;17.48;;;11.23;;
67749;SDS011;54550;48.838;8.828;2023-04-10T00:17:43;19.23;;;11.40;;
67749;SDS011;54550;48.838;8.828;2023-04-10T00:20:09;18.77;;;11.57;;
67749;SDS011;54550;48.838;8.828;2023-04-10T00:22:35;16.63;;;10.47;;
67749;SDS011;54550;48.838;8.828;2023-04-10T00:25:00;21.00;;;12.10;;
67749;SDS011;54550;48.838;8.828;2023-04-10T00:27:26;20.50;;;12.10;;
67749;SDS011;54550;48.838;8.828;2023-04-10T00:29:51;19.93;;;11.97;;
67749;SDS011;54550;48.838;8.828;2023-04-10T00:32:17;19.70;;;12.50;;
67749;SDS011;54550;48.838;8.828;2023-04-10T00:34:42;20.50;;;12.17;;
67749;SDS011;54550;48.838;8.828;2023-04-10T00:37:08;21.10;;;12.63;;
67749;SDS011;54550;48.838;8.828;2023-04-10T00:39:33;17.80;;;11.60;;
67749;SDS011;54550;48.838;8.828;2023-04-10T00:41:59;18.63;;;11.87;;
67749;SDS011;54550;48.838;8.828;2023-04-10T00:44:26;20.95;;;12.05;;
67749;SDS011;54550;48.838;8.828;2023-04-10T00:46:52;18.80;;;12.00;;
67749;SDS011;54550;48.838;8.828;2023-04-10T00:49:17;34.43;;;12.63;;
67749;SDS011;54550;48.838;8.828;2023-04-10T00:51:43;19.47;;;12.37;;
67749;SDS011;54550;48.838;8.828;2023-04-10T00:54:09;19.67;;;11.87;;
67749;SDS011;54550;48.838;8.828;2023-04-10T00:56:36;15.10;;;10.38;;
67749;SDS011;54550;48.838;8.828;2023-04-10T00:59:01;20.77;;;11.77;;
67749;SDS011;54550;48.838;8.828;2023-04-10T01:01:27;18.37;;;11.47;;
67749;SDS011;54550;48.838;8.828;2023-04-10T01:03:53;18.77;;;12.27;;
67749;SDS011;54550;48.838;8.828;2023-04-10T01:20:08;18.23;;;12.15;;
67749;SDS011;54550;48.838;8.828;2023-04-10T01:25:16;16.95;;;11.35;;
67749;SDS011;54550;48.838;8.828;2023-04-10T01:30:59;19.33;;;12.55;;
67749;SDS011;54550;48.838;8.828;2023-04-10T01:33:29;19.10;;;11.90;;
67749;SDS011;54550;48.838;8.828;2023-04-10T01:36:00;23.80;;;12.63;;
67749;SDS011;54550;48.838;8.828;2023-04-10T01:38:28;21.42;;;13.57;;
67749;SDS011;54550;48.838;8.828;2023-04-10T01:40:55;20.80;;;11.98;;
67749;SDS011;54550;48.838;8.828;2023-04-10T01:43:23;20.33;;;12.57;;
67749;SDS011;54550;48.838;8.828;2023-04-10T01:45:51;20.02;;;12.27;;
67749;SDS011;54550;48.838;8.828;2023-04-10T01:48:17;20.08;;;12.82;;
67749;SDS011;54550;48.838;8.828;2023-04-10T01:50:44;16.02;;;10.60;;
67749;SDS011;54550;48.838;8.828;2023-04-10T01:53:10;19.05;;;12.27;;
67749;SDS011;54550;48.838;8.828;2023-04-10T01:55:37;21.42;;;13.25;;
67749;SDS011;54550;48.838;8.828;2023-04-10T01:58:03;19.52;;;12.32;;
67749;SDS011;54550;48.838;8.828;2023-04-10T02:00:30;19.10;;;13.05;;
67749;SDS011;54550;48.838;8.828;2023-04-10T02:03:10;22.55;;;13.85;;
67749;SDS011;54550;48.838;8.828;2023-04-10T02:09:24;20.17;;;11.77;;
67749;SDS011;54550;48.838;8.828;2023-04-10T02:11:37;17.20;;;11.98;;
67749;SDS011;54550;48.838;8.828;2023-04-10T02:14:35;22.83;;;13.45;;
67749;SDS011;54550;48.838;8.828;2023-04-10T02:17:03;16.90;;;11.60;;
67749;SDS011;54550;48.838;8.828;2023-04-10T02:19:30;22.08;;;12.85;;
67749;SDS011;54550;48.838;8.828;2023-04-10T02:21:58;17.23;;;11.90;;
67749;SDS011;54550;48.838;8.828;2023-04-10T02:24:23;21.00;;;12.93;;
67749;SDS011;54550;48.838;8.828;2023-04-10T02:26:50;22.40;;;13.40;;
67749;SDS011;54550;48.838;8.828;2023-04-10T02:29:17;21.92;;;13.20;;
67749;SDS011;54550;48.838;8.828;2023-04-10T02:31:43;23.92;;;14.57;;
67749;SDS011;54550;48.838;8.828;2023-04-10T02:34:09;24.10;;;13.38;;
67749;SDS011;54550;48.838;8.828;2023-04-10T02:36:36;23.77;;;15.25;;
67749;SDS011;54550;48.838;8.828;2023-04-10T02:39:03;22.20;;;14.43;;
67749;SDS011;54550;48.838;8.828;2023-04-10T02:41:29;23.90;;;14.63;;
67749;SDS011;54550;48.838;8.828;2023-04-10T02:43:55;24.07;;;14.67;;
67749;SDS011;54550;48.838;8.828;2023-04-10T02:46:20;21.13;;;13.73;;
67749;SDS011;54550;48.838;8.828;2023-04-10T02:48:46;23.40;;;13.70;;
67749;SDS011;54550;48.838;8.828;2023-04-10T02:51:12;23.77;;;14.47;;
67749;SDS011;54550;48.838;8.828;2023-04-10T02:53:38;24.10;;;14.63;;
67749;SDS011;54550;48.838;8.828;2023-04-10T02:56:03;20.57;;;12.80;;
67749;SDS011;54550;48.838;8.828;2023-04-10T02:58:30;23.13;;;12.85;;
67749;SDS011;54550;48.838;8.828;2023-04-10T03:00:56;26.23;;;13.23;;
67749;SDS011;54550;48.838;8.828;2023-04-10T03:03:22;28.57;;;13.60;;
67749;SDS011;54550;48.838;8.828;2023-04-10T03:05:48;25.03;;;15.20;;
67749;SDS011;54550;48.838;8.828;2023-04-10T03:08:14;24.97;;;14.90;;
67749;SDS011;54550;48.838;8.828;2023-04-10T03:10:44;24.20;;;14.25;;
67749;SDS011;54550;48.838;8.828;2023-04-10T03:13:12;26.63;;;13.68;;
67749;SDS011;54550;48.838;8.828;2023-04-10T03:15:38;23.33;;;13.40;;
67749;SDS011;54550;48.838;8.828;2023-04-10T03:18:04;28.87;;;15.00;;
67749;SDS011;54550;48.838;8.828;2023-04-10T03:20:30;23.23;;;13.43;;
67749;SDS011;54550;48.838;8.828;2023-04-10T03:22:57;22.75;;;14.15;;
67749;SDS011;54550;48.838;8.828;2023-04-10T03:25:25;25.70;;;15.23;;
67749;SDS011;54550;48.838;8.828;2023-04-10T03:27:51;24.23;;;14.50;;
67749;SDS011;54550;48.838;8.828;2023-04-10T03:30:17;29.40;;;15.07;;
67749;SDS011;54550;48.838;8.828;2023-04-10T03:32:42;26.40;;;15.07;;
67749;SDS011;54550;48.838;8.828;2023-04-10T03:35:08;28.20;;;14.97;;
67749;SDS011;54550;48.838;8.828;2023-04-10T03:37:34;26.27;;;14.13;;
67749;SDS011;54550;48.838;8.828;2023-04-10T03:40:00;26.43;;;14.70;;
67749;SDS011;54550;48.838;8.828;2023-04-10T03:42:29;25.98;;;14.75;;
67749;SDS011;54550;48.838;8.828;2023-04-10T03:44:55;25.03;;;14.43;;
67749;SDS011;54550;48.838;8.828;2023-04-10T03:47:20;17.73;;;12.07;;
67749;SDS011;54550;48.838;8.828;2023-04-10T03:49:49;22.52;;;13.55;;
67749;SDS011;54550;48.838;8.828;2023-04-10T03:52:14;25.40;;;14.63;;
67749;SDS011;54550;48.838;8.828;2023-04-10T03:54:40;27.83;;;13.73;;
67749;SDS011;54550;48.838;8.828;2023-04-10T03:57:06;24.23;;;14.38;;
67749;SDS011;54550;48.838;8.828;2023-04-10T03:59:32;23.97;;;13.27;;
67749;SDS011;54550;48.838;8.828;2023-04-10T04:01:57;23.33;;;13.50;;
67749;SDS011;54550;48.838;8.828;2023-04-10T04:04:23;26.47;;;14.10;;
67749;SDS011;54550;48.838;8.828;2023-04-10T04:06:50;23.58;;;12.65;;
67749;SDS011;54550;48.838;8.828;2023-04-10T04:09:15;20.00;;;13.37;;
67749;SDS011;54550;48.838;8.828;2023-04-10T04:11:41;27.67;;;12.50;;
67749;SDS011;54550;48.838;8.828;2023-04-10T04:14:06;19.27;;;12.60;;
67749;SDS011;54550;48.838;8.828;2023-04-10T04:16:32;21.13;;;13.20;;
67749;SDS011;54550;48.838;8.828;2023-04-10T04:18:58;21.13;;;12.50;;
67749;SDS011;54550;48.838;8.828;2023-04-10T04:21:23;24.43;;;12.20;;
67749;SDS011;54550;48.838;8.828;2023-04-10T04:23:49;23.15;;;12.75;;
67749;SDS011;54550;48.838;8.828;2023-04-10T04:26:15;21.33;;;12.90;;
67749;SDS011;54550;48.838;8.828;2023-04-10T04:28:41;25.50;;;13.53;;
67749;SDS011;54550;48.838;8.828;2023-04-10T04:31:06;25.47;;;13.37;;
67749;SDS011;54550;48.838;8.828;2023-04-10T04:33:32;18.17;;;11.67;;
67749;SDS011;54550;48.838;8.828;2023-04-10T04:35:57;21.93;;;13.30;;
67749;SDS011;54550;48.838;8.828;2023-04-10T04:38:23;19.80;;;12.10;;
67749;SDS011;54550;48.838;8.828;2023-04-10T04:40:48;23.63;;;13.37;;
67749;SDS011;54550;48.838;8.828;2023-04-10T04:43:14;16.93;;;11.27;;
67749;SDS011;54550;48.838;8.828;2023-04-10T04:45:40;19.40;;;11.40;;
67749;SDS011;54550;48.838;8.828;2023-04-10T04:48:05;18.67;;;11.53;;
67749;SDS011;54550;48.838;8.828;2023-04-10T04:50:31;15.20;;;9.63;;
67749;SDS011;54550;48.838;8.828;2023-04-10T04:52:56;18.50;;;12.70;;
67749;SDS011;54550;48.838;8.828;2023-04-10T04:55:24;22.63;;;12.75;;
67749;SDS011;54550;48.838;8.828;2023-04-10T04:57:49;16.40;;;11.47;;
67749;SDS011;54550;48.838;8.828;2023-04-10T05:00:15;21.43;;;12.50;;
67749;SDS011;54550;48.838;8.828;2023-04-10T05:02:41;19.13;;;11.60;;
67749;SDS011;54550;48.838;8.828;2023-04-10T05:05:06;15.33;;;10.07;;
67749;SDS011;54550;48.838;8.828;2023-04-10T05:07:32;24.50;;;13.80;;
67749;SDS011;54550;48.838;8.828;2023-04-10T05:09:58;19.70;;;11.60;;
67749;SDS011;54550;48.838;8.828;2023-04-10T05:12:23;19.40;;;11.97;;
67749;SDS011;54550;48.838;8.828;2023-04-10T05:14:49;17.80;;;11.23;;
67749;SDS011;54550;48.838;8.828;2023-04-10T05:17:14;22.43;;;10.83;;
67749;SDS011;54550;48.838;8.828;2023-04-10T05:19:40;21.13;;;12.02;;
67749;SDS011;54550;48.838;8.828;2023-04-10T05:22:06;17.30;;;11.37;;
67749;SDS011;54550;48.838;8.828;2023-04-10T05:24:32;17.50;;;10.57;;
67749;SDS011;54550;48.838;8.828;2023-04-10T05:26:58;19.63;;;12.40;;
67749;SDS011;54550;48.838;8.828;2023-04-10T05:29:23;19.73;;;12.77;;
67749;SDS011;54550;48.838;8.828;2023-04-10T05:31:49;14.27;;;9.80;;
67749;SDS011;54550;48.838;8.828;2023-04-10T05:34:15;18.00;;;11.27;;
67749;SDS011;54550;48.838;8.828;2023-04-10T05:36:41;19.23;;;11.55;;
67749;SDS011;54550;48.838;8.828;2023-04-10T05:39:07;18.90;;;11.23;;
67749;SDS011;54550;48.838;8.828;2023-04-10T05:41:32;18.67;;;11.70;;
67749;SDS011;54550;48.838;8.828;2023-04-10T05:43:58;17.77;;;11.17;;
67749;SDS011;54550;48.838;8.828;2023-04-10T05:46:23;16.27;;;10.10;;
67749;SDS011;54550;48.838;8.828;2023-04-10T05:48:49;15.27;;;9.20;;
67749;SDS011;54550;48.838;8.828;2023-04-10T05:51:15;15.27;;;9.57;;
67749;SDS011;54550;48.838;8.828;2023-04-10T05:53:40;13.57;;;8.47;;
67749;SDS011;54550;48.838;8.828;2023-04-10T05:56:06;15.07;;;8.70;;
67749;SDS011;54550;48.838;8.828;2023-04-10T05:58:32;15.48;;;9.07;;
67749;SDS011;54550;48.838;8.828;2023-04-10T06:00:58;10.67;;;8.00;;
67749;SDS011;54550;48.838;8.828;2023-04-10T06:03:23;14.90;;;10.60;;
67749;SDS011;54550;48.838;8.828;2023-04-10T06:05:51;14.18;;;8.50;;
67749;SDS011;54550;48.838;8.828;2023-04-10T06:08:17;17.80;;;8.77;;
67749;SDS011;54550;48.838;8.828;2023-04-10T06:10:43;14.95;;;8.95;;
67749;SDS011;54550;48.838;8.828;2023-04-10T06:13:10;17.15;;;10.27;;
67749;SDS011;54550;48.838;8.828;2023-04-10T06:15:36;15.30;;;9.57;;
67749;SDS011;54550;48.838;8.828;2023-04-10T06:18:01;13.10;;;8.50;;
67749;SDS011;54550;48.838;8.828;2023-04-10T06:20:27;13.97;;;9.87;;
67749;SDS011;54550;48.838;8.828;2023-04-10T06:22:52;21.23;;;9.73;;
67749;SDS011;54550;48.838;8.828;2023-04-10T06:25:18;14.87;;;8.77;;
67749;SDS011;54550;48.838;8.828;2023-04-10T06:27:43;13.33;;;9.23;;
67749;SDS011;54550;48.838;8.828;2023-04-10T06:30:09;11.67;;;8.80;;
67749;SDS011;54550;48.838;8.828;2023-04-10T06:32:35;12.47;;;9.63;;
67749;SDS011;54550;48.838;8.828;2023-04-10T06:35:00;14.67;;;9.57;;
67749;SDS011;54550;48.838;8.828;2023-04-10T06:37:29;14.30;;;8.60;;
67749;SDS011;54550;48.838;8.828;2023-04-10T06:40:05;11.27;;;8.30;;
67749;SDS011;54550;48.838;8.828;2023-04-10T06:42:33;16.00;;;9.88;;
67749;SDS011;54550;48.838;8.828;2023-04-10T06:44:59;10.20;;;7.43;;
67749;SDS011;54550;48.838;8.828;2023-04-10T06:47:25;12.33;;;7.67;;
67749;SDS011;54550;48.838;8.828;2023-04-10T06:49:50;11.67;;;8.57;;
67749;SDS011;54550;48.838;8.828;2023-04-10T06:52:16;12.13;;;7.20;;
67749;SDS011;54550;48.838;8.828;2023-04-10T06:54:42;8.43;;;6.15;;
67749;SDS011;54550;48.838;8.828;2023-04-10T06:57:08;10.20;;;6.97;;
67749;SDS011;54550;48.838;8.828;2023-04-10T06:59:33;12.57;;;7.40;;
67749;SDS011;54550;48.838;8.828;2023-04-10T07:01:59;10.00;;;6.93;;
67749;SDS011;54550;48.838;8.828;2023-04-10T07:04:26;12.35;;;6.68;;
67749;SDS011;54550;48.838;8.828;2023-04-10T07:06:52;9.60;;;6.33;;
67749;SDS011;54550;48.838;8.828;2023-04-10T07:09:18;8.77;;;6.70;;
67749;SDS011;54550;48.838;8.828;2023-04-10T07:11:43;12.50;;;7.50;;
67749;SDS011;54550;48.838;8.828;2023-04-10T07:14:09;8.40;;;6.20;;
67749;SDS011;54550;48.838;8.828;2023-04-10T07:16:35;7.67;;;5.53;;
67749;SDS011;54550;48.838;8.828;2023-04-10T07:19:01;12.32;;;8.05;;
67749;SDS011;54550;48.838;8.828;2023-04-10T07:21:26;8.30;;;6.17;;
67749;SDS011;54550;48.838;8.828;2023-04-10T07:23:52;11.50;;;7.00;;
67749;SDS011;54550;48.838;8.828;2023-04-10T07:26:18;10.73;;;7.10;;
67749;SDS011;54550;48.838;8.828;2023-04-10T07:28:43;10.73;;;6.57;;
67749;SDS011;54550;48.838;8.828;2023-04-10T07:31:09;12.57;;;7.10;;
67749;SDS011;54550;48.838;8.828;2023-04-10T07:33:36;10.82;;;7.05;;
67749;SDS011;54550;48.838;8.828;2023-04-10T07:36:04;8.87;;;6.53;;
67749;SDS011;54550;48.838;8.828;2023-04-10T07:38:31;8.27;;;5.67;;
67749;SDS011;54550;48.838;8.828;2023-04-10T07:40:57;9.83;;;6.77;;
67749;SDS011;54550;48.838;8.828;2023-04-10T07:43:23;8.80;;;6.70;;
67749;SDS011;54550;48.838;8.828;2023-04-10T07:45:49;6.60;;;5.07;;
67749;SDS011;54550;48.838;8.828;2023-04-10T07:48:14;5.83;;;4.83;;
67749;SDS011;54550;48.838;8.828;2023-04-10T07:50:40;7.10;;;5.33;;
67749;SDS011;54550;48.838;8.828;2023-04-10T07:53:05;6.90;;;5.80;;
67749;SDS011;54550;48.838;8.828;2023-04-10T07:55:37;6.93;;;4.70;;
67749;SDS011;54550;48.838;8.828;2023-04-10T07:58:09;4.83;;;4.33;;
67749;SDS011;54550;48.838;8.828;2023-04-10T08:00:35;7.70;;;5.10;;
67749;SDS011;54550;48.838;8.828;2023-04-10T08:03:01;7.00;;;5.07;;
67749;SDS011;54550;48.838;8.828;2023-04-10T08:05:28;5.67;;;4.67;;
67749;SDS011;54550;48.838;8.828;2023-04-10T08:07:53;6.80;;;5.27;;
67749;SDS011;54550;48.838;8.828;2023-04-10T08:10:19;5.07;;;4.57;;
67749;SDS011;54550;48.838;8.828;2023-04-10T08:12:44;6.70;;;5.00;;
67749;SDS011;54550;48.838;8.828;2023-04-10T08:15:10;5.80;;;3.63;;
67749;SDS011;54550;48.838;8.828;2023-04-10T08:17:35;5.50;;;4.77;;
67749;SDS011;54550;48.838;8.828;2023-04-10T08:20:01;5.07;;;4.27;;
67749;SDS011;54550;48.838;8.828;2023-04-10T08:22:28;5.27;;;4.00;;
67749;SDS011;54550;48.838;8.828;2023-04-10T08:24:53;5.37;;;4.30;;
67749;SDS011;54550;48.838;8.828;2023-04-10T08:27:19;5.70;;;4.10;;
67749;SDS011;54550;48.838;8.828;2023-04-10T08:29:45;8.43;;;3.97;;
67749;SDS011;54550;48.838;8.828;2023-04-10T08:32:10;4.20;;;3.80;;
67749;SDS011;54550;48.838;8.828;2023-04-10T08:34:36;4.07;;;3.57;;
67749;SDS011;54550;48.838;8.828;2023-04-10T08:37:05;5.63;;;4.20;;
67749;SDS011;54550;48.838;8.828;2023-04-10T08:39:34;4.10;;;3.43;;
67749;SDS011;54550;48.838;8.828;2023-04-10T08:42:00;4.63;;;3.93;;
67749;SDS011;54550;48.838;8.828;2023-04-10T08:44:27;4.87;;;4.37;;
67749;SDS011;54550;48.838;8.828;2023-04-10T08:46:52;7.30;;;3.90;;
67749;SDS011;54550;48.838;8.828;2023-04-10T08:50:08;6.40;;;4.30;;
67749;SDS011;54550;48.838;8.828;2023-04-10T08:52:17;5.60;;;4.77;;
67749;SDS011;54550;48.838;8.828;2023-04-10T08:54:47;5.17;;;4.17;;
67749;SDS011;54550;48.838;8.828;2023-04-10T08:57:15;5.60;;;3.27;;
67749;SDS011;54550;48.838;8.828;2023-04-10T08:59:45;4.23;;;3.63;;
67749;SDS011;54550;48.838;8.828;2023-04-10T09:02:11;4.97;;;4.03;;
67749;SDS011;54550;48.838;8.828;2023-04-10T09:04:36;4.00;;;3.60;;
67749;SDS011;54550;48.838;8.828;2023-04-10T09:07:02;4.67;;;3.93;;
67749;SDS011;54550;48.838;8.828;2023-04-10T09:09:28;8.50;;;3.50;;
67749;SDS011;54550;48.838;8.828;2023-04-10T09:11:57;4.53;;;3.33;;
67749;SDS011;54550;48.838;8.828;2023-04-10T09:14:25;4.43;;;3.30;;
67749;SDS011;54550;48.838;8.828;2023-04-10T09:16:53;4.00;;;3.40;;
67749;SDS011;54550;48.838;8.828;2023-04-10T09:19:33;3.47;;;3.17;;
67749;SDS011;54550;48.838;8.828;2023-04-10T09:21:58;4.97;;;3.63;;
67749;SDS011;54550;48.838;8.828;2023-04-10T09:24:24;3.43;;;3.00;;
67749;SDS011;54550;48.838;8.828;2023-04-10T09:26:50;3.47;;;3.10;;
67749;SDS011;54550;48.838;8.828;2023-04-10T09:29:16;3.40;;;3.10;;
67749;SDS011;54550;48.838;8.828;2023-04-10T09:31:42;4.10;;;2.90;;
67749;SDS011;54550;48.838;8.828;2023-04-10T09:34:14;13.20;;;3.40;;
67749;SDS011;54550;48.838;8.828;2023-04-10T09:36:55;3.47;;;3.00;;
67749;SDS011;54550;48.838;8.828;2023-04-10T09:39:31;3.17;;;2.87;;
67749;SDS011;54550;48.838;8.828;2023-04-10T09:41:58;3.43;;;3.00;;
67749;SDS011;54550;48.838;8.828;2023-04-10T09:44:28;4.43;;;3.13;;
67749;SDS011;54550;48.838;8.828;2023-04-10T09:46:58;4.50;;;2.40;;
67749;SDS011;54550;48.838;8.828;2023-04-10T09:52:18;3.33;;;2.57;;
67749;SDS011;54550;48.838;8.828;2023-04-10T09:54:55;3.73;;;3.20;;
67749;SDS011;54550;48.838;8.828;2023-04-10T09:57:23;3.80;;;2.90;;
67749;SDS011;54550;48.838;8.828;2023-04-10T09:59:56;4.50;;;2.90;;
67749;SDS011;54550;48.838;8.828;2023-04-10T10:02:23;3.53;;;3.23;;
67749;SDS011;54550;48.838;8.828;2023-04-10T10:04:52;3.50;;;2.70;;
67749;SDS011;54550;48.838;8.828;2023-04-10T10:07:19;2.50;;;2.30;;
67749;SDS011;54550;48.838;8.828;2023-04-10T10:09:46;2.37;;;2.17;;
67749;SDS011;54550;48.838;8.828;2023-04-10T10:12:18;2.90;;;2.53;;
67749;SDS011;54550;48.838;8.828;2023-04-10T10:20:32;3.50;;;3.10;;
67749;SDS011;54550;48.838;8.828;2023-04-10T10:23:01;3.40;;;2.70;;
67749;SDS011;54550;48.838;8.828;2023-04-10T10:25:27;2.83;;;2.53;;
67749;SDS011;54550;48.838;8.828;2023-04-10T10:27:55;2.83;;;2.63;;
67749;SDS011;54550;48.838;8.828;2023-04-10T10:30:24;2.27;;;2.07;;
67749;SDS011;54550;48.838;8.828;2023-04-10T10:32:50;2.50;;;2.30;;
67749;SDS011;54550;48.838;8.828;2023-04-10T10:35:16;2.43;;;2.23;;
67749;SDS011;54550;48.838;8.828;2023-04-10T10:37:42;6.13;;;2.80;;
67749;SDS011;54550;48.838;8.828;2023-04-10T10:43:09;2.40;;;2.00;;
67749;SDS011;54550;48.838;8.828;2023-04-10T10:48:18;2.83;;;2.17;;
67749;SDS011;54550;48.838;8.828;2023-04-10T10:53:41;1.87;;;1.77;;
67749;SDS011;54550;48.838;8.828;2023-04-10T10:58:50;2.43;;;2.20;;
67749;SDS011;54550;48.838;8.828;2023-04-10T11:01:22;1.70;;;1.60;;
67749;SDS011;54550;48.838;8.828;2023-04-10T11:03:48;2.33;;;2.13;;
67749;SDS011;54550;48.838;8.828;2023-04-10T11:06:17;4.27;;;1.80;;
67749;SDS011;54550;48.838;8.828;2023-04-10T11:08:47;8.27;;;1.87;;
67749;SDS011;54550;48.838;8.828;2023-04-10T11:11:20;2.27;;;1.90;;
67749;SDS011;54550;48.838;8.828;2023-04-10T11:16:42;1.80;;;1.70;;
67749;SDS011;54550;48.838;8.828;2023-04-10T11:19:08;2.23;;;2.00;;
67749;SDS011;54550;48.838;8.828;2023-04-10T11:21:40;2.93;;;1.60;;
67749;SDS011;54550;48.838;8.828;2023-04-10T11:24:28;2.07;;;1.83;;
67749;SDS011;54550;48.838;8.828;2023-04-10T11:30:02;1.60;;;1.50;;
67749;SDS011;54550;48.838;8.828;2023-04-10T11:32:39;1.53;;;1.43;;
67749;SDS011;54550;48.838;8.828;2023-04-10T11:35:05;1.93;;;1.60;;
67749;SDS011;54550;48.838;8.828;2023-04-10T11:37:31;1.97;;;1.50;;
67749;SDS011;54550;48.838;8.828;2023-04-10T11:40:03;1.97;;;1.33;;
67749;SDS011;54550;48.838;8.828;2023-04-10T11:42:30;7.70;;;1.40;;
67749;SDS011;54550;48.838;8.828;2023-04-10T11:44:55;1.63;;;1.40;;
67749;SDS011;54550;48.838;8.828;2023-04-10T11:47:21;1.37;;;1.27;;
67749;SDS011;54550;48.838;8.828;2023-04-10T11:49:46;1.77;;;1.67;;
67749;SDS011;54550;48.838;8.828;2023-04-10T11:52:25;1.70;;;1.60;;
67749;SDS011;54550;48.838;8.828;2023-04-10T11:54:51;1.37;;;1.27;;
67749;SDS011;54550;48.838;8.828;2023-04-10T11:57:16;1.40;;;1.30;;
67749;SDS011;54550;48.838;8.828;2023-04-10T11:59:48;1.53;;;1.27;;
67749;SDS011;54550;48.838;8.828;2023-04-10T12:02:14;1.97;;;1.67;;
67749;SDS011;54550;48.838;8.828;2023-04-10T12:04:40;3.10;;;1.70;;
67749;SDS011;54550;48.838;8.828;2023-04-10T12:07:07;1.37;;;1.27;;
67749;SDS011;54550;48.838;8.828;2023-04-10T12:09:33;1.97;;;1.60;;
67749;SDS011;54550;48.838;8.828;2023-04-10T12:12:00;1.60;;;1.50;;
67749;SDS011;54550;48.838;8.828;2023-04-10T12:14:31;1.50;;;1.23;;
67749;SDS011;54550;48.838;8.828;2023-04-10T12:16:58;2.10;;;1.90;;
67749;SDS011;54550;48.838;8.828;2023-04-10T12:19:25;1.40;;;1.30;;
67749;SDS011;54550;48.838;8.828;2023-04-10T12:21:51;1.87;;;1.70;;
67749;SDS011;54550;48.838;8.828;2023-04-10T12:29:52;1.17;;;1.00;;
67749;SDS011;54550;48.838;8.828;2023-04-10T12:32:19;1.47;;;1.23;;
67749;SDS011;54550;48.838;8.828;2023-04-10T12:34:55;1.20;;;1.10;;
67749;SDS011;54550;48.838;8.828;2023-04-10T12:37:21;1.17;;;1.07;;
67749;SDS011;54550;48.838;8.828;2023-04-10T12:39:48;0.97;;;0.80;;
67749;SDS011;54550;48.838;8.828;2023-04-10T12:42:17;49.30;;;1.60;;
67749;SDS011;54550;48.838;8.828;2023-04-10T12:44:51;1.03;;;0.87;;
67749;SDS011;54550;48.838;8.828;2023-04-10T12:47:24;1.23;;;0.97;;
67749;SDS011;54550;48.838;8.828;2023-04-10T12:53:01;1.57;;;1.23;;
67749;SDS011;54550;48.838;8.828;2023-04-10T12:55:35;1.30;;;1.10;;
67749;SDS011;54550;48.838;8.828;2023-04-10T12:58:17;1.30;;;1.20;;
67749;SDS011;54550;48.838;8.828;2023-04-10T13:00:46;1.37;;;1.27;;
67749;SDS011;54550;48.838;8.828;2023-04-10T13:03:12;2.10;;;1.90;;
67749;SDS011;54550;48.838;8.828;2023-04-10T13:05:37;1.47;;;1.33;;
67749;SDS011;54550;48.838;8.828;2023-04-10T13:08:03;2.63;;;1.10;;
67749;SDS011;54550;48.838;8.828;2023-04-10T13:10:29;3.73;;;1.40;;
67749;SDS011;54550;48.838;8.828;2023-04-10T13:12:54;1.00;;;0.80;;
67749;SDS011;54550;48.838;8.828;2023-04-10T13:15:20;1.50;;;1.33;;
67749;SDS011;54550;48.838;8.828;2023-04-10T13:17:46;2.47;;;1.80;;
67749;SDS011;54550;48.838;8.828;2023-04-10T13:20:11;1.47;;;1.37;;
67749;SDS011;54550;48.838;8.828;2023-04-10T13:22:37;1.37;;;1.27;;
67749;SDS011;54550;48.838;8.828;2023-04-10T13:25:03;1.97;;;1.77;;
67749;SDS011;54550;48.838;8.828;2023-04-10T13:27:29;1.33;;;1.23;;
67749;SDS011;54550;48.838;8.828;2023-04-10T13:29:55;1.73;;;1.63;;
67749;SDS011;54550;48.838;8.828;2023-04-10T13:32:20;1.43;;;1.30;;
67749;SDS011;54550;48.838;8.828;2023-04-10T13:34:46;2.00;;;1.80;;
67749;SDS011;54550;48.838;8.828;2023-04-10T13:37:11;1.40;;;1.30;;
67749;SDS011;54550;48.838;8.828;2023-04-10T13:39:37;2.80;;;1.13;;
67749;SDS011;54550;48.838;8.828;2023-04-10T13:42:03;1.10;;;1.00;;
67749;SDS011;54550;48.838;8.828;2023-04-10T13:44:28;1.40;;;1.20;;
67749;SDS011;54550;48.838;8.828;2023-04-10T13:46:54;2.10;;;1.00;;
67749;SDS011;54550;48.838;8.828;2023-04-10T13:49:20;2.20;;;1.23;;
67749;SDS011;54550;48.838;8.828;2023-04-10T13:51:46;1.43;;;1.20;;
67749;SDS011;54550;48.838;8.828;2023-04-10T13:54:12;0.90;;;0.77;;
67749;SDS011;54550;48.838;8.828;2023-04-10T13:56:40;0.90;;;0.77;;
67749;SDS011;54550;48.838;8.828;2023-04-10T13:59:06;2.97;;;0.97;;
67749;SDS011;54550;48.838;8.828;2023-04-10T14:01:31;1.10;;;0.93;;
67749;SDS011;54550;48.838;8.828;2023-04-10T14:03:57;1.00;;;0.80;;
67749;SDS011;54550;48.838;8.828;2023-04-10T14:06:23;1.00;;;0.80;;
67749;SDS011;54550;48.838;8.828;2023-04-10T14:08:48;1.10;;;1.00;;
67749;SDS011;54550;48.838;8.828;2023-04-10T14:11:14;1.47;;;0.87;;
67749;SDS011;54550;48.838;8.828;2023-04-10T14:13:39;1.10;;;0.80;;
67749;SDS011;54550;48.838;8.828;2023-04-10T14:16:05;1.07;;;0.87;;
67749;SDS011;54550;48.838;8.828;2023-04-10T14:18:31;2.20;;;0.90;;
67749;SDS011;54550;48.838;8.828;2023-04-10T14:20:57;1.03;;;0.73;;
67749;SDS011;54550;48.838;8.828;2023-04-10T14:23:22;1.83;;;1.00;;
67749;SDS011;54550;48.838;8.828;2023-04-10T14:25:49;1.53;;;0.93;;
67749;SDS011;54550;48.838;8.828;2023-04-10T14:28:14;0.90;;;0.60;;
67749;SDS011;54550;48.838;8.828;2023-04-10T14:30:43;0.90;;;0.80;;
67749;SDS011;54550;48.838;8.828;2023-04-10T14:33:10;0.90;;;0.80;;
67749;SDS011;54550;48.838;8.828;2023-04-10T14:35:36;0.93;;;0.53;;
67749;SDS011;54550;48.838;8.828;2023-04-10T14:38:02;1.43;;;0.70;;
67749;SDS011;54550;48.838;8.828;2023-04-10T14:40:28;1.20;;;0.90;;
67749;SDS011;54550;48.838;8.828;2023-04-10T14:42:53;1.20;;;0.93;;
67749;SDS011;54550;48.838;8.828;2023-04-10T14:45:19;3.53;;;0.83;;
67749;SDS011;54550;48.838;8.828;2023-04-10T14:47:44;1.47;;;0.80;;
67749;SDS011;54550;48.838;8.828;2023-04-10T14:50:11;0.80;;;0.50;;
67749;SDS011;54550;48.838;8.828;2023-04-10T14:52:37;0.90;;;0.80;;
67749;SDS011;54550;48.838;8.828;2023-04-10T14:55:02;0.83;;;0.67;;
67749;SDS011;54550;48.838;8.828;2023-04-10T14:57:28;0.90;;;0.53;;
67749;SDS011;54550;48.838;8.828;2023-04-10T14:59:54;1.40;;;0.90;;
67749;SDS011;54550;48.838;8.828;2023-04-10T15:02:20;1.10;;;0.60;;
67749;SDS011;54550;48.838;8.828;2023-04-10T15:04:46;1.03;;;0.93;;
67749;SDS011;54550;48.838;8.828;2023-04-10T15:07:12;1.40;;;0.90;;
67749;SDS011;54550;48.838;8.828;2023-04-10T15:09:37;1.27;;;0.90;;
67749;SDS011;54550;48.838;8.828;2023-04-10T15:12:04;1.00;;;0.90;;
67749;SDS011;54550;48.838;8.828;2023-04-10T15:14:30;0.90;;;0.80;;
67749;SDS011;54550;48.838;8.828;2023-04-10T15:16:56;1.00;;;0.67;;
67749;SDS011;54550;48.838;8.828;2023-04-10T15:19:21;1.30;;;0.90;;
67749;SDS011;54550;48.838;8.828;2023-04-10T15:21:47;1.00;;;0.80;;
67749;SDS011;54550;48.838;8.828;2023-04-10T15:24:13;1.03;;;0.80;;
67749;SDS011;54550;48.838;8.828;2023-04-10T15:26:42;1.00;;;0.70;;
67749;SDS011;54550;48.838;8.828;2023-04-10T15:29:09;0.90;;;0.70;;
67749;SDS011;54550;48.838;8.828;2023-04-10T15:31:35;1.57;;;0.80;;